Data for 04/30/2014

Time Sea-Level Adjusted Pressure Absolute Pressure Temperature Relative Humidity Dew Point   
(mb) (inHg) (mb) (inHg) (C) (F) (%) (C) (F)
00:05 1033 30.5 862 25.45 1.2 34.1 62 -5.2 22.6
00:10 1033 30.5 862 25.45 1.2 34.1 62 -5.2 22.6
00:15 1033 30.5 862 25.45 1.3 34.3 61 -5.4 22.2
00:20 1033 30.5 862 25.45 1.2 34.1 62 -5.2 22.6
00:25 1033 30.5 862 25.45 1.3 34.4 59 -5.9 21.4
00:30 1033 30.5 862 25.45 1.8 35.3 54 -6.5 20.2
00:35 1033 30.5 862 25.45 1.8 35.3 57 -5.8 21.5
00:40 1033 30.5 862 25.45 1.5 34.7 59 -5.7 21.8
00:45 1033 30.5 862 25.45 1.3 34.3 60 -5.7 21.8
00:50 1033 30.5 862 25.45 0.9 33.7 63 -5.2 22.6
00:55 1033 30.5 862 25.45 0.7 33.2 63 -5.6 21.9
01:00 1033 30.5 862 25.45 0.8 33.4 61 -5.8 21.6
01:05 1033 30.5 862 25.45 0.9 33.6 62 -5.6 22
01:10 1033 30.5 862 25.45 1 33.8 58 -6.3 20.6
01:15 1033 30.5 862 25.45 1.5 34.6 57 -6.1 21
01:20 1033 30.5 862 25.45 1.6 34.8 59 -5.6 21.9
01:25 1033 30.5 862 25.45 1.3 34.3 58 -6.2 20.9
01:30 1033 30.5 862 25.45 1.4 34.5 62 -5.2 22.7
01:35 1033 30.5 862 25.45 0.9 33.6 63 -5.3 22.5
01:40 1033 30.5 862 25.45 0.6 33.1 65 -5.2 22.7
01:45 1033 30.5 862 25.45 0.5 33 64 -5.4 22.2
01:50 1033 30.5 862 25.45 0.5 32.8 65 -5.4 22.3
01:55 1033 30.5 862 25.45 0.3 32.5 63 -5.8 21.5
02:00 1033 30.5 862 25.45 0.8 33.4 62 -5.8 21.6
02:05 1033 30.5 862 25.45 1 33.7 60 -5.9 21.5
02:10 1033 30.5 862 25.45 0.9 33.7 62 -5.5 22.1
02:15 1033 30.5 862 25.45 0.6 33.1 63 -5.6 21.8
02:20 1033 30.5 862 25.45 0.4 32.8 64 -5.7 21.8
02:25 1033 30.5 862 25.45 0.2 32.3 65 -5.7 21.7
02:30 1033 30.5 862 25.45 0.1 32.1 64 -5.9 21.3
02:35 1033 30.5 862 25.45 0 32 65 -5.8 21.5
02:40 1033 30.5 862 25.45 0.1 32.3 63 -6.2 20.9
02:45 1033 30.5 862 25.45 0.4 32.7 62 -6 21.2
02:50 1033 30.5 862 25.45 0.3 32.6 62 -6 21.2
02:55 1033 30.5 862 25.45 0.1 32.2 63 -6 21.1
03:00 1033 30.5 862 25.45 -0.1 31.8 64 -6.1 21
03:05 1033 30.5 862 25.45 -0.1 31.9 63 -6.3 20.7
03:10 1033 30.5 862 25.45 -0.4 31.3 66 -6 21.3
03:15 1033 30.5 862 25.45 -0.4 31.3 65 -6.1 21.1
03:20 1033 30.5 862 25.45 -0.6 30.9 67 -5.9 21.4
03:25 1033 30.5 862 25.45 -0.1 31.7 62 -6.7 20
03:30 1033 30.5 862 25.45 0 32 64 -6 21.3
03:35 1033 30.5 862 25.45 -0.4 31.2 64 -6.3 20.6
03:40 1033 30.5 862 25.45 -0.2 31.6 63 -6.5 20.3
03:45 1033 30.5 862 25.45 -0.1 31.8 62 -6.4 20.4
03:50 1033 30.5 862 25.45 -0.1 31.8 63 -6.3 20.6
03:55 1033 30.5 862 25.45 -0.1 31.7 63 -6.4 20.5
04:00 1033 30.5 862 25.45 -0.2 31.6 64 -6.3 20.6
04:05 1033 30.5 862 25.45 -0.4 31.3 64 -6.4 20.4
04:10 1033 30.5 862 25.45 -0.4 31.3 63 -6.5 20.2
04:15 1033 30.5 862 25.45 -0.3 31.4 64 -6.4 20.5
04:20 1033 30.5 862 25.45 -0.4 31.3 64 -6.3 20.6
04:25 1033 30.5 862 25.45 -0.4 31.4 64 -6.3 20.6
04:30 1033 30.5 862 25.45 -0.4 31.2 64 -6.3 20.6
04:35 1033 30.5 862 25.45 -0.4 31.3 63 -6.5 20.2
04:40 1033 30.5 862 25.45 -0.4 31.3 64 -6.5 20.3
04:45 1033 30.5 862 25.45 -0.4 31.3 64 -6.4 20.5
04:50 1033 30.5 862 25.45 -0.5 31.1 64 -6.4 20.5
04:55 1033 30.5 862 25.45 -0.6 31 64 -6.5 20.3
05:00 1033 30.5 862 25.45 -0.3 31.4 63 -6.6 20.2
05:05 1033 30.5 862 25.45 -0.4 31.3 64 -6.4 20.4
05:10 1033 30.5 862 25.45 -0.4 31.3 63 -6.5 20.3
05:15 1033 30.5 862 25.45 -0.4 31.2 64 -6.5 20.4
05:20 1033 30.5 862 25.45 -0.5 31.2 64 -6.5 20.2
05:25 1033 30.5 862 25.45 -0.5 31.2 64 -6.5 20.3
05:30 1033 30.5 862 25.45 -0.5 31.1 63 -6.6 20.1
05:35 1033 30.5 862 25.45 -0.4 31.4 63 -6.6 20.1
05:40 1033 30.5 862 25.45 -0.3 31.5 62 -6.7 20
05:45 1033 30.5 862 25.45 -0.1 31.8 61 -6.7 19.9
05:50 1033 30.5 862 25.45 0.1 32.2 60 -6.8 19.8
05:55 1033 30.5 862 25.45 0.3 32.6 60 -6.6 20
06:00 1033 30.5 862 25.45 0.2 32.4 60 -6.7 20
06:05 1033 30.5 862 25.45 0.3 32.6 61 -6.4 20.5
06:10 1033 30.5 862 25.45 0.3 32.5 60 -6.6 20.1
06:15 1033 30.5 862 25.45 0.5 32.9 60 -6.4 20.5
06:20 1033 30.5 862 25.45 0.5 32.9 60 -6.4 20.5
06:25 1033 30.5 862 25.45 0.7 33.3 59 -6.4 20.5
06:30 1033 30.5 862 25.45 1 33.7 58 -6.5 20.3
06:35 1033 30.5 862 25.45 1.4 34.6 56 -6.5 20.3
06:40 1033 30.5 863 25.48 1.9 35.5 54 -6.3 20.7
06:45 1033 30.5 863 25.48 2.2 35.9 52 -6.6 20.1
06:50 1033 30.5 863 25.48 2.6 36.6 50 -6.8 19.8
06:55 1033 30.5 863 25.48 3 37.5 49 -6.7 19.9
07:00 1033 30.5 863 25.48 3.4 38.1 47 -6.9 19.6
07:05 1033 30.5 863 25.48 4.3 39.8 45 -6.5 20.3
07:10 1033 30.5 863 25.48 4.8 40.6 45 -6.3 20.7
07:15 1033 30.5 863 25.48 5 41 45 -6 21.2
07:20 1034 30.53 863 25.48 5.1 41.2 45 -5.9 21.3
07:25 1034 30.53 863 25.48 5.6 42.1 43 -6 21.2
07:30 1034 30.53 863 25.48 5.9 42.7 41 -6.4 20.5
07:35 1034 30.53 863 25.48 6.1 42.9 43 -5.7 21.8
07:40 1034 30.53 863 25.48 6.1 43 41 -6.3 20.7
07:45 1034 30.53 863 25.48 6 42.8 41 -6.4 20.4
07:50 1034 30.53 863 25.48 6.3 43.4 41 -6 21.3
07:55 1034 30.53 863 25.48 6.7 44 41 -5.7 21.7
08:00 1034 30.53 863 25.48 7.3 45.1 38 -6.3 20.7
08:05 1034 30.53 863 25.48 7.5 45.6 36 -6.5 20.2
08:10 1034 30.53 863 25.48 7.4 45.2 38 -6.2 20.9
08:15 1034 30.53 863 25.48 7.4 45.3 36 -6.8 19.7
08:20 1034 30.53 863 25.48 6.9 44.5 39 -6.1 21
08:25 1034 30.53 863 25.48 7.1 44.7 36 -7.1 19.2
08:30 1034 30.53 863 25.48 7.2 45 36 -7 19.5
08:35 1034 30.53 863 25.48 8.4 47 33 -7.2 19.1
08:40 1033 30.5 863 25.48 8.1 46.5 35 -6.6 20.1
08:45 1033 30.5 863 25.48 7.7 45.8 35 -6.7 20
08:50 1033 30.5 863 25.48 8.5 47.2 34 -6.7 20
08:55 1033 30.5 863 25.48 9 48.2 30 -7.7 18.1
09:00 1033 30.5 863 25.48 8.8 47.8 30 -7.7 18.1
09:05 1033 30.5 863 25.48 8.9 48.1 32 -6.9 19.6
09:10 1033 30.5 863 25.48 9.4 48.9 30 -7.4 18.7
09:15 1033 30.5 862 25.45 9.6 49.3 28 -7.9 17.8
09:20 1033 30.5 862 25.45 9.6 49.2 29 -7.8 18
09:25 1033 30.5 862 25.45 9.6 49.2 28 -7.9 17.9
09:30 1033 30.5 862 25.45 10.1 50.2 28 -7.6 18.4
09:35 1033 30.5 862 25.45 9.9 49.7 27 -8.2 17.3
09:40 1033 30.5 862 25.45 9.5 49.1 28 -8.1 17.4
09:45 1033 30.5 862 25.45 10.6 51.1 26 -8.1 17.4
09:50 1033 30.5 862 25.45 10.8 51.4 26 -8 17.6
09:55 1033 30.5 862 25.45 11.1 52.1 26 -7.7 18.1
10:00 1033 30.5 862 25.45 11.1 52 26 -7.9 17.8
10:05 1033 30.5 862 25.45 11.1 52 25 -8.4 16.9
10:10 1033 30.5 862 25.45 10.6 51 26 -8.1 17.4
10:15 1033 30.5 862 25.45 10.7 51.2 28 -6.9 19.6
10:20 1033 30.5 862 25.45 11.3 52.3 27 -7.2 19
10:25 1033 30.5 862 25.45 11.4 52.6 25 -7.8 17.9
10:30 1033 30.5 862 25.45 11.9 53.3 26 -7.3 18.9
10:35 1033 30.5 862 25.45 11.5 52.7 27 -7 19.3
10:40 1033 30.5 862 25.45 11.5 52.8 26 -7.2 19
10:45 1033 30.5 862 25.45 12 53.6 24 -8.1 17.5
10:50 1033 30.5 862 25.45 11.5 52.7 25 -8.1 17.4
10:55 1033 30.5 862 25.45 11.5 52.8 23 -8.9 15.9
11:00 1033 30.5 862 25.45 11 51.8 25 -8.2 17.2
11:05 1033 30.5 862 25.45 11.9 53.4 23 -8.5 16.7
11:10 1033 30.5 862 25.45 12.1 53.7 24 -8.1 17.5
11:15 1032 30.47 862 25.45 12.4 54.4 23 -7.8 17.9
11:20 1032 30.47 862 25.45 12.5 54.4 23 -7.8 17.9
11:25 1032 30.47 862 25.45 12.8 55 23 -8 17.6
11:30 1032 30.47 862 25.45 12.7 54.8 22 -8.2 17.2
11:35 1032 30.47 861 25.43 12.5 54.5 24 -7.4 18.7
11:40 1032 30.47 861 25.43 12.6 54.7 22 -8.4 16.8
11:45 1032 30.47 861 25.43 12.7 54.9 22 -8.4 16.9
11:50 1032 30.47 861 25.43 12.9 55.3 22 -8.4 16.9
11:55 1032 30.47 861 25.43 13 55.4 21 -8.5 16.7
12:00 1032 30.47 861 25.43 12.7 54.8 22 -8.6 16.6
12:05 1032 30.47 861 25.43 13.1 55.7 20 -9.4 15.1
12:10 1032 30.47 861 25.43 13.3 55.9 22 -8.1 17.3
12:15 1032 30.47 861 25.43 13 55.4 21 -9.1 15.7
12:20 1032 30.47 861 25.43 13 55.3 21 -9.1 15.7
12:25 1032 30.47 861 25.43 13.3 55.9 22 -8.1 17.5
12:30 1032 30.47 861 25.43 14.2 57.5 21 -7.9 17.7
12:35 1032 30.47 861 25.43 13.4 56.2 22 -7.9 17.7
12:40 1032 30.47 861 25.43 13.5 56.3 21 -8.3 17.1
12:45 1032 30.47 861 25.43 13.9 56.9 20 -8.4 16.9
12:50 1031 30.45 861 25.43 14.1 57.4 20 -8.3 17.1
12:55 1031 30.45 861 25.43 13.2 55.8 21 -8.4 16.9
13:00 1031 30.45 861 25.43 13.5 56.3 22 -8.1 17.5
13:05 1031 30.45 861 25.43 13.9 57 20 -8.4 16.8
13:10 1031 30.45 861 25.43 14.3 57.7 21 -8 17.7
13:15 1031 30.45 860 25.4 14.2 57.6 20 -8.2 17.2
13:20 1031 30.45 860 25.4 13.8 56.9 22 -7.3 18.9
13:25 1031 30.45 860 25.4 13.9 57 20 -8.6 16.6
13:30 1031 30.45 860 25.4 14 57.1 21 -7.9 17.8
13:35 1031 30.45 860 25.4 14.3 57.7 21 -7.9 17.8
13:40 1031 30.45 860 25.4 14.8 58.7 20 -8.2 17.3
13:45 1031 30.45 860 25.4 15 59 20 -8 17.5
13:50 1031 30.45 860 25.4 14.9 58.8 20 -8 17.6
13:55 1031 30.45 860 25.4 14.8 58.7 20 -7.6 18.3
14:00 1031 30.45 860 25.4 14.8 58.6 20 -7.9 17.7
14:05 1031 30.45 860 25.4 14.8 58.6 20 -8.1 17.5
14:10 1031 30.45 860 25.4 14.6 58.2 20 -8.4 16.9
14:15 1031 30.45 860 25.4 14.9 58.7 19 -8.5 16.7
14:20 1031 30.45 860 25.4 15.1 59.1 18 -9 15.8
14:25 1031 30.45 860 25.4 14.2 57.5 19 -9.1 15.6
14:30 1031 30.45 860 25.4 14.6 58.2 18 -9.5 14.9
14:35 1030 30.42 860 25.4 15.2 59.3 17 -9.4 15.1
14:40 1030 30.42 860 25.4 15.5 59.9 18 -8.5 16.7
14:45 1030 30.42 860 25.4 14.9 58.8 20 -8 17.6
14:50 1030 30.42 859 25.37 15 59.1 18 -9.3 15.3
14:55 1030 30.42 859 25.37 14.9 58.9 19 -8.7 16.4
15:00 1030 30.42 859 25.37 14.7 58.5 20 -8 17.5
15:05 1030 30.42 859 25.37 14.9 58.9 17 -9.9 14.2
15:10 1030 30.42 859 25.37 14.6 58.2 19 -9 15.7
15:15 1030 30.42 859 25.37 15 59 18 -8.9 15.9
15:20 1030 30.42 859 25.37 15.4 59.8 18 -9 15.8
15:25 1030 30.42 859 25.37 15.3 59.5 18 -8.9 15.9
15:30 1030 30.42 859 25.37 15.3 59.5 17 -9.3 15.3
15:35 1030 30.42 859 25.37 15.3 59.5 17 -9.7 14.5
15:40 1030 30.42 859 25.37 15.1 59.1 18 -9 15.9
15:45 1030 30.42 859 25.37 15 59 19 -8.7 16.3
15:50 1030 30.42 859 25.37 15.3 59.5 17 -9.8 14.4
15:55 1030 30.42 859 25.37 15.7 60.2 17 -9.4 15.1
16:00 1030 30.42 859 25.37 16 60.7 17 -9 15.8
16:05 1030 30.42 859 25.37 15.9 60.7 17 -8.8 16.2
16:10 1030 30.42 859 25.37 15.4 59.7 17 -9.3 15.3
16:15 1030 30.42 859 25.37 16 60.8 17 -9.4 15.1
16:20 1030 30.42 859 25.37 15.8 60.4 18 -8.4 16.9
16:25 1029 30.39 859 25.37 15.3 59.6 18 -8.5 16.6
16:30 1030 30.42 859 25.37 15.2 59.4 18 -8.9 15.9
16:35 1030 30.42 859 25.37 15.1 59.2 18 -9 15.9
16:40 1030 30.42 859 25.37 15.5 59.8 17 -9.5 14.8
16:45 1030 30.42 859 25.37 16 60.7 15 -10.3 13.4
16:50 1029 30.39 859 25.37 15.3 59.6 17 -9.7 14.6
16:55 1029 30.39 858 25.34 14.7 58.4 17 -10.2 13.7
17:00 1029 30.39 858 25.34 14.9 58.8 17 -9.6 14.8
17:05 1029 30.39 858 25.34 15.4 59.7 15 -10.9 12.4
17:10 1029 30.39 858 25.34 14.8 58.7 17 -10.1 13.9
17:15 1029 30.39 858 25.34 15 58.9 17 -10.2 13.6
17:20 1029 30.39 858 25.34 15.4 59.6 17 -9.4 15.1
17:25 1029 30.39 858 25.34 15.7 60.2 17 -9.3 15.3
17:30 1029 30.39 858 25.34 15.6 60.1 17 -9.1 15.6
17:35 1029 30.39 858 25.34 15.5 59.9 16 -9.8 14.3
17:40 1029 30.39 858 25.34 15.4 59.8 18 -8.4 16.8
17:45 1029 30.39 858 25.34 15.3 59.6 15 -10.8 12.6
17:50 1029 30.39 858 25.34 14.6 58.3 17 -10.3 13.4
17:55 1029 30.39 858 25.34 14.1 57.4 18 -10.2 13.6
18:00 1029 30.39 858 25.34 14.1 57.3 17 -10.3 13.5
18:05 1029 30.39 858 25.34 13.8 56.8 17 -10.5 13.1
18:10 1029 30.39 858 25.34 13.6 56.5 18 -10.4 13.3
18:15 1029 30.39 858 25.34 13.8 56.8 17 -10.5 13.1
18:20 1028 30.36 858 25.34 13.9 56.9 18 -10.1 13.8
18:25 1028 30.36 858 25.34 13.9 56.9 18 -9.9 14.1
18:30 1028 30.36 858 25.34 13.8 56.8 18 -9.9 14.2
18:35 1028 30.36 858 25.34 13.8 56.8 18 -10.1 13.8
18:40 1028 30.36 858 25.34 13.5 56.2 18 -10.5 13.2
18:45 1028 30.36 857 25.31 13.2 55.8 20 -9.6 14.8
18:50 1028 30.36 857 25.31 13.1 55.6 20 -9.3 15.2
18:55 1028 30.36 857 25.31 13 55.5 18 -10.5 13.1
19:00 1028 30.36 857 25.31 12.9 55.2 20 -9.4 15.1
19:05 1028 30.36 857 25.31 12.7 54.8 21 -9.4 15.2
19:10 1028 30.36 857 25.31 12.6 54.7 22 -8.8 16.2
19:15 1028 30.36 857 25.31 12.1 53.9 27 -6.1 21
19:20 1028 30.36 857 25.31 11.2 52.1 31 -5.5 22.1
19:25 1028 30.36 857 25.31 10.4 50.8 33 -5.2 22.7
19:30 1028 30.36 857 25.31 9.9 49.8 33 -5.4 22.2
19:35 1028 30.36 857 25.31 9.5 49.2 35 -5.3 22.4
19:40 1028 30.36 857 25.31 9.4 48.8 35 -5.3 22.4
19:45 1028 30.36 857 25.31 9.2 48.6 35 -5.3 22.4
19:50 1028 30.36 857 25.31 9 48.3 37 -4.8 23.3
19:55 1028 30.36 857 25.31 8.6 47.4 39 -4.4 24
20:00 1028 30.36 857 25.31 8.1 46.6 40 -4.6 23.8
20:05 1028 30.36 857 25.31 7.9 46.1 41 -4.6 23.7
20:10 1028 30.36 857 25.31 7.8 46.1 38 -5.5 22.2
20:15 1028 30.36 857 25.31 8 46.4 37 -5.7 21.7
20:20 1028 30.36 858 25.34 7.8 46.1 39 -5.2 22.7
20:25 1028 30.36 858 25.34 7.6 45.6 39 -5.5 22
20:30 1028 30.36 858 25.34 7.5 45.5 40 -5.1 22.8
20:35 1028 30.36 858 25.34 7.4 45.2 40 -5.4 22.2
20:40 1028 30.36 858 25.34 7.4 45.3 39 -5.7 21.7
20:45 1028 30.36 858 25.34 7.3 45.2 40 -5.4 22.2
20:50 1028 30.36 858 25.34 7.4 45.2 38 -5.9 21.4
20:55 1028 30.36 858 25.34 7.5 45.6 37 -6.1 21.1
21:00 1028 30.36 858 25.34 7.4 45.3 38 -6.1 21
21:05 1028 30.36 858 25.34 7.3 45.1 38 -6.1 21
21:10 1028 30.36 858 25.34 7 44.7 39 -5.9 21.3
21:15 1028 30.36 858 25.34 6.8 44.3 40 -5.7 21.7
21:20 1028 30.36 858 25.34 6.8 44.3 38 -6.5 20.3
21:25 1028 30.36 858 25.34 7.1 44.8 37 -6.6 20.1
21:30 1028 30.36 857 25.31 7.1 44.7 38 -6.4 20.5
21:35 1028 30.36 857 25.31 7 44.6 38 -6.2 20.8
21:40 1028 30.36 857 25.31 6.6 44 40 -6 21.2
21:45 1028 30.36 857 25.31 6.4 43.6 40 -6 21.1
21:50 1028 30.36 857 25.31 6.3 43.3 40 -6.5 20.4
21:55 1028 30.36 857 25.31 6 42.8 41 -6.1 21
22:00 1028 30.36 857 25.31 6 42.8 42 -5.8 21.5
22:05 1028 30.36 857 25.31 5.9 42.7 41 -6.2 20.8
22:10 1028 30.36 857 25.31 5.9 42.6 43 -5.7 21.7
22:15 1028 30.36 857 25.31 5.8 42.4 43 -5.8 21.6
22:20 1028 30.36 857 25.31 5.6 42.1 45 -5.5 22.1
22:25 1028 30.36 857 25.31 5.3 41.6 47 -5.1 22.9
22:30 1028 30.36 857 25.31 5.1 41.2 45 -5.7 21.7
22:35 1028 30.36 857 25.31 5.4 41.6 45 -5.7 21.7
22:40 1028 30.36 857 25.31 5.4 41.8 43 -6.1 21
22:45 1028 30.36 857 25.31 5.6 42.2 42 -6.3 20.7
22:50 1028 30.36 857 25.31 5.7 42.2 43 -6 21.3
22:55 1028 30.36 857 25.31 5.6 42 44 -5.8 21.5
23:00 1028 30.36 857 25.31 5.4 41.7 45 -5.7 21.8
23:05 1028 30.36 857 25.31 5.2 41.4 44 -5.9 21.3
23:10 1028 30.36 857 25.31 5.3 41.6 43 -6.3 20.6
23:15 1028 30.36 857 25.31 5.6 42.1 42 -6.3 20.6
23:20 1028 30.36 857 25.31 5.5 41.9 42 -6.3 20.6
23:25 1028 30.36 857 25.31 5.7 42.2 41 -6.7 20
23:30 1028 30.36 857 25.31 5.6 42 42 -6.3 20.7
23:35 1028 30.36 857 25.31 5.3 41.6 43 -6.1 21
23:40 1028 30.36 857 25.31 5.3 41.6 41 -6.9 19.6
23:45 1028 30.36 857 25.31 5.6 42.1 41 -6.6 20.2
23:50 1028 30.36 857 25.31 5.4 41.7 44 -6 21.1
23:55 1028 30.36 857 25.31 5.1 41.1 43 -6.4 20.4
24:00 1028 30.36 857 25.31 5 40.9 45 -6.1 21